METAR Data
IDs: Format: Raw Decoded Include TAF

Data at: 0329 UTC 18 Jun 2019

PACV 180308Z 15003KT 10SM -RA FEW009 OVC015 11/09 A2981 RMK AO2 P0000 T01110094
PACV 180253Z VRB03KT 5SM -RA BR BKN007 BKN013 OVC019 11/10 A2980 RMK AO2 SLP092 P0008 60033 T01110100 53009
PACV 180229Z 20005KT 3SM R27/5000VP6000FT -RA BR BKN007 OVC015 11/09 A2980 RMK AO2 P0008 T01110094
PACV 180225Z 20005KT 1 1/2SM R27/5000VP6000FT -RA BR BKN005 BKN013 OVC019 11/09 A2980 RMK AO2 P0008 T01110094
PACV 180218Z 19005KT 1 1/4SM R27/5000VP6000FT +RA BR BKN004 BKN014 OVC021 11/10 A2979 RMK AO2 P0007 T01110100
PACV 180215Z 16005KT 2SM R27/6000VP6000FT -RA BR SCT004 BKN014 OVC021 12/10 A2979 RMK AO2 P0004 T01170100
PACV 180206Z 14003KT 1 3/4SM -RA BR SCT005 OVC016 12/10 A2979 RMK AO2 P0002 T01170100
PACV 180203Z 00000KT 2SM -RA BR SCT005 BKN014 OVC022 12/10 A2979 RMK AO2 P0001 T01170100
PACV 180158Z 11004KT 1 1/2SM R27/5500VP6000FT RA BR SCT005 BKN016 OVC026 12/10 A2979 RMK AO2 P0001 T01170100
PACV 180153Z 12003KT 1 1/2SM R27/5500VP6000FT RA BR BKN005 BKN013 OVC018 12/11 A2979 RMK AO2 SLP087 P0013 T01170106
PACV 180131Z 17005KT 1 1/4SM R27/5000VP6000FT RA BR BKN005 BKN018 OVC028 12/11 A2978 RMK AO2 P0007 T01170106
PACV 180124Z 12005KT 2SM RA BR BKN005 BKN009 OVC027 12/11 A2978 RMK AO2 P0005 T01170106
PACV 180115Z 11005KT 2SM RA BR SCT007 BKN016 OVC025 12/11 A2978 RMK AO2 P0004 T01170106
PACV 180101Z 11005KT 3SM -RA BR FEW007 BKN028 OVC036 12/10 A2978 RMK AO2 P0002 T01170100
PACV 180053Z 10005KT 3SM RA BR SCT024 BKN032 OVC055 12/10 A2978 RMK AO2 SLP083 P0012 T01170100
PACV 180051Z 11006KT 3SM -RA BR SCT024 BKN032 OVC055 12/10 A2978 RMK AO2 P0012
PACV 180028Z 14008KT 2 1/2SM R27/6000VP6000FT -RA BR SCT024 BKN032 OVC055 12/11 A2977 RMK AO2 P0007 T01170106
PACV 172353Z 14007KT 1 3/4SM RA BR FEW011 BKN032 OVC043 12/10 A2977 RMK AO2 SLP080 P0008 60028 T01170100 10139 20117 51020
PACV 172339Z 15009G16KT 1 1/2SM R27/6000VP6000FT RA BR SCT008 BKN017 OVC027 12/10 A2977 RMK AO2 P0004 T01170100
PACV 172300Z 14009KT 4SM -RA BR FEW012 BKN023 OVC038 12/11 A2976 RMK AO2 P0000 T01170106
PACV 172253Z 13008G17KT 1 3/4SM R27/4000VP6000FT RA BR FEW013 BKN023 OVC029 12/10 A2975 RMK AO2 VIS 1V3 SLP075 P0008 T01170100
PACV 172238Z 14008KT 2 1/2SM R27/5000VP6000FT RA BR FEW009 BKN022 OVC034 12/10 A2975 RMK AO2 VIS 1V5 P0004 T01170100
PACV 172159Z 13008KT 3SM R27/5500VP6000FT -RA BR BKN018 OVC024 12/10 A2973 RMK AO2 P0000 T01170100
PACV 172153Z 14009KT 1 3/4SM R27/5000VP6000FT RA BR SCT018 OVC024 12/10 A2973 RMK AO2 SLP068 P0009 T01170100
PACV 172119Z 15009G16KT 1 3/4SM R27/6000VP6000FT -RA BR FEW011 BKN023 OVC045 12/11 A2972 RMK AO2 P0001 T01220106
PACV 172056Z 14007G19KT 5SM -RA FEW009 BKN028 OVC035 13/10 A2971 RMK AO2 P0000 T01280100
PACV 172053Z 12008G19KT 5SM -RA FEW024 BKN030 OVC038 13/10 A2971 RMK AO2 SLP061 P0002 60003 T01280100 53017
PACV 171953Z 10005KT 10SM -RA SCT038 OVC065 13/09 A2968 RMK AO2 RAB00 SLP050 P0001 T01330089
PACV 171853Z 00000KT 10SM BKN045 OVC055 13/10 A2966 RMK AO2 RAE1758B24E41 SLP043 P0000 T01330100
PACV 171753Z 04005KT 10SM -RA FEW028 BKN060 OVC075 12/09 A2966 RMK AO2 SLP044 P0001 60003 T01170089 10117 20094 50005
PACV 171653Z VRB03KT 10SM -RA FEW028 BKN060 OVC075 12/09 A2966 RMK AO2 RAB1556 SLP044 P0001 T01170094
PACV 171553Z 16004KT 10SM SCT060 BKN070 OVC095 11/09 A2965 RMK AO2 RAB14E50 SLP040 P0000 T01110089
PACV 171453Z 00000KT 10SM OVC080 11/08 A2965 RMK AO2 RAB1358E46 SLP039 P0000 60001 T01060083 56010
PACV 171353Z 07004KT 10SM BKN055 OVC095 09/08 A2965 RMK AO2 RAB1259E19B43E52 SLP041 P0000 T00940078
PACV 171253Z 04004KT 10SM OVC050 09/08 A2967 RMK AO2 RAE42 SLP046 P0001 T00940083
PACV 171153Z 00000KT 10SM -RA OVC050 10/08 A2968 RMK AO2 RAE21B50 SLP049 P0000 60002 70014 T01000083 10117 20094 58021
PACV 171053Z 03003KT 10SM -RA OVC065 10/08 A2970 RMK AO2 RAB17 SLP056 P0001 T01000078
PACV 170953Z 00000KT 10SM FEW043 OVC080 09/08 A2972 RMK AO2 SLP064 T00940083
PACV 170853Z 00000KT 10SM BKN039 OVC050 10/08 A2974 RMK AO2 RAB36E49 SLP070 P0000 60001 T01000078 401500094 58016
PACV 170753Z 00000KT 10SM SCT039 BKN075 OVC100 11/08 A2975 RMK AO2 SLP076 T01060083
PACV 170653Z 07004KT 10SM OVC037 11/08 A2978 RMK AO2 RAE48 SLP084 P0001 T01110083
PACV 170553Z 00000KT 10SM -RA OVC046 12/09 A2978 RMK AO2 RAB29 SLP086 P0000 60001 T01170094 10133 20117 56017
PACV 170453Z 04003KT 10SM OVC040 12/08 A2979 RMK AO2 RAB02E53 SLP089 P0000 T01170083
PACV 170353Z 34003KT 10SM FEW041 OVC049 12/08 A2982 RMK AO2 SLP097 T01220083
PACV 170253Z 00000KT 10SM FEW010 OVC034 12/09 A2984 RMK AO2 SLP103 60001 T01220094 58014
PACV 170153Z 23003KT 10SM FEW007 BKN035 OVC045 12/10 A2985 RMK AO2 SLP109 T01220100
PACV 170108Z 12004KT 10SM FEW008 BKN027 BKN060 13/10 A2986 RMK AO2 T01330100
PACV 170053Z 16005KT 10SM FEW019 BKN031 BKN045 13/11 A2987 RMK AO2 RAE41 SLP114 P0001 T01280106
PACV 170008Z 15007KT 4SM R27/6000VP6000FT -RA BR FEW008 BKN025 OVC030 12/10 A2987 RMK AO2 P0001 T01220100
PACV 162353Z VRB04KT 4SM -RA BR BKN026 OVC031 12/10 A2987 RMK AO2 RAB28 SLP117 P0001 60002 T01220100 10150 20122 51001
PACV 162342Z VRB04KT 2 1/2SM R27/4500VP6000FT -RA FEW021 OVC026 13/09 A2988 RMK AO2 VIS 1 1/4V5 RAB28 P0000 T01280094
PACV 162253Z 04005KT 10SM FEW015 BKN031 OVC048 14/09 A2987 RMK AO2 SLP117 T01390089
PACV 162153Z 11008KT 10SM FEW016 BKN031 OVC047 14/08 A2987 RMK AO2 RAE18 SLP115 P0000 T01440083
PACV 162053Z 11009KT 10SM -RA FEW018 BKN031 OVC047 13/08 A2988 RMK AO2 RAB45 SLP117 P0000 60001 T01330083 53004
PACV 161953Z 00000KT 10SM FEW020 OVC035 13/09 A2987 RMK AO2 SLP114 T01280094
PACV 161853Z 02003KT 10SM BKN044 OVC055 12/09 A2987 RMK AO2 RAE50 SLP114 P0001 T01220094
PACV 161753Z 00000KT 10SM -RA FEW019 BKN044 OVC055 12/09 A2986 RMK AO2 SLP113 P0001 60009 T01220089 10122 20094 53002
PACV 161653Z 03004KT 10SM -RA FEW019 BKN044 OVC055 11/09 A2986 RMK AO2 SLP112 P0001 T01110089
PACV 161553Z 03003KT 10SM -RA FEW019 FEW039 OVC055 11/08 A2986 RMK AO2 SLP112 P0001 T01060083